sensor_id;sensor_type;location;lat;lon;timestamp;pressure;altitude;pressure_sealevel;temperature;humidity
78855;BME280;68206;59.956;30.234;2023-02-28T00:01:39;101064.97;;;2.14;75.50
78855;BME280;68206;59.956;30.234;2023-02-28T00:04:08;101065.88;;;2.19;75.68
78855;BME280;68206;59.956;30.234;2023-02-28T00:06:37;101075.56;;;2.24;75.65
78855;BME280;68206;59.956;30.234;2023-02-28T00:09:07;101040.66;;;2.25;75.54
78855;BME280;68206;59.956;30.234;2023-02-28T00:11:36;101057.28;;;2.29;75.49
78855;BME280;68206;59.956;30.234;2023-02-28T00:14:05;101048.59;;;2.34;75.28
78855;BME280;68206;59.956;30.234;2023-02-28T00:16:34;101035.50;;;2.34;75.30
78855;BME280;68206;59.956;30.234;2023-02-28T00:19:03;101038.16;;;2.36;75.04
78855;BME280;68206;59.956;30.234;2023-02-28T00:21:31;101016.31;;;2.35;75.03
78855;BME280;68206;59.956;30.234;2023-02-28T00:24:00;101025.97;;;2.41;74.75
78855;BME280;68206;59.956;30.234;2023-02-28T00:26:30;101018.13;;;2.44;74.81
78855;BME280;68206;59.956;30.234;2023-02-28T00:28:59;101014.66;;;2.47;74.52
78855;BME280;68206;59.956;30.234;2023-02-28T00:31:28;101013.81;;;2.48;74.61
78855;BME280;68206;59.956;30.234;2023-02-28T00:33:57;101019.03;;;2.46;74.59
78855;BME280;68206;59.956;30.234;2023-02-28T00:36:26;101016.41;;;2.46;74.49
78855;BME280;68206;59.956;30.234;2023-02-28T00:38:55;101026.91;;;2.49;73.95
78855;BME280;68206;59.956;30.234;2023-02-28T00:41:23;101025.16;;;2.51;74.39
78855;BME280;68206;59.956;30.234;2023-02-28T00:43:54;101007.75;;;2.53;73.98
78855;BME280;68206;59.956;30.234;2023-02-28T00:46:23;101005.13;;;2.56;73.55
78855;BME280;68206;59.956;30.234;2023-02-28T00:48:51;101004.25;;;2.54;73.81
78855;BME280;68206;59.956;30.234;2023-02-28T00:51:20;101008.63;;;2.57;73.36
78855;BME280;68206;59.956;30.234;2023-02-28T00:53:49;101012.13;;;2.56;73.54
78855;BME280;68206;59.956;30.234;2023-02-28T00:56:18;100978.09;;;2.59;73.74
78855;BME280;68206;59.956;30.234;2023-02-28T00:58:47;100994.69;;;2.58;73.90
78855;BME280;68206;59.956;30.234;2023-02-28T01:01:17;100994.66;;;2.56;73.46
78855;BME280;68206;59.956;30.234;2023-02-28T01:03:46;100987.69;;;2.57;73.53
78855;BME280;68206;59.956;30.234;2023-02-28T01:06:14;100995.56;;;2.60;73.42
78855;BME280;68206;59.956;30.234;2023-02-28T01:08:43;100987.69;;;2.55;73.68
78855;BME280;68206;59.956;30.234;2023-02-28T01:11:15;100985.06;;;2.54;73.54
78855;BME280;68206;59.956;30.234;2023-02-28T01:13:45;100978.94;;;2.53;73.53
78855;BME280;68206;59.956;30.234;2023-02-28T01:16:15;100979.78;;;2.51;74.07
78855;BME280;68206;59.956;30.234;2023-02-28T01:18:46;100984.16;;;2.52;73.45
78855;BME280;68206;59.956;30.234;2023-02-28T01:21:16;100960.63;;;2.53;73.98
78855;BME280;68206;59.956;30.234;2023-02-28T01:23:46;100976.34;;;2.58;73.78
78855;BME280;68206;59.956;30.234;2023-02-28T01:26:16;100955.38;;;2.53;73.56
78855;BME280;68206;59.956;30.234;2023-02-28T01:28:46;100957.16;;;2.59;73.38
78855;BME280;68206;59.956;30.234;2023-02-28T01:31:17;100959.75;;;2.54;73.50
78855;BME280;68206;59.956;30.234;2023-02-28T01:33:50;100947.53;;;2.55;73.33
78855;BME280;68206;59.956;30.234;2023-02-28T01:36:21;100944.94;;;2.59;73.25
78855;BME280;68206;59.956;30.234;2023-02-28T01:38:51;100942.31;;;2.58;73.32
78855;BME280;68206;59.956;30.234;2023-02-28T01:41:23;100943.22;;;2.63;73.27
78855;BME280;68206;59.956;30.234;2023-02-28T01:43:56;100946.72;;;2.63;72.72
78855;BME280;68206;59.956;30.234;2023-02-28T01:46:25;100940.59;;;2.61;72.89
78855;BME280;68206;59.956;30.234;2023-02-28T01:49:00;100928.38;;;2.63;72.52
78855;BME280;68206;59.956;30.234;2023-02-28T01:51:35;100924.00;;;2.59;72.80
78855;BME280;68206;59.956;30.234;2023-02-28T01:54:09;100931.03;;;2.62;72.92
78855;BME280;68206;59.956;30.234;2023-02-28T01:56:44;100941.47;;;2.63;72.88
78855;BME280;68206;59.956;30.234;2023-02-28T01:59:20;100943.19;;;2.58;73.20
78855;BME280;68206;59.956;30.234;2023-02-28T02:01:50;100931.84;;;2.59;73.06
78855;BME280;68206;59.956;30.234;2023-02-28T02:04:22;100929.28;;;2.62;72.57
78855;BME280;68206;59.956;30.234;2023-02-28T02:06:52;100939.75;;;2.65;72.38
78855;BME280;68206;59.956;30.234;2023-02-28T02:09:21;100924.91;;;2.66;72.39
78855;BME280;68206;59.956;30.234;2023-02-28T02:11:55;100934.47;;;2.59;72.36
78855;BME280;68206;59.956;30.234;2023-02-28T02:14:51;100917.03;;;2.61;72.94
78855;BME280;68206;59.956;30.234;2023-02-28T02:17:26;100915.28;;;2.63;72.50
78855;BME280;68206;59.956;30.234;2023-02-28T02:20:24;100905.66;;;2.56;72.78
78855;BME280;68206;59.956;30.234;2023-02-28T02:26:29;100915.28;;;2.59;72.67
78855;BME280;68206;59.956;30.234;2023-02-28T02:35:09;100918.75;;;2.58;72.41
78855;BME280;68206;59.956;30.234;2023-02-28T02:37:43;100915.25;;;2.54;72.70
78855;BME280;68206;59.956;30.234;2023-02-28T02:40:18;100923.06;;;2.51;73.13
78855;BME280;68206;59.956;30.234;2023-02-28T02:42:51;100912.63;;;2.53;72.80
78855;BME280;68206;59.956;30.234;2023-02-28T02:45:25;100923.09;;;2.57;72.91
78855;BME280;68206;59.956;30.234;2023-02-28T02:47:58;100916.13;;;2.55;72.60
78855;BME280;68206;59.956;30.234;2023-02-28T02:50:34;100905.66;;;2.58;72.48
78855;BME280;68206;59.956;30.234;2023-02-28T02:53:07;100901.31;;;2.58;72.75
78855;BME280;68206;59.956;30.234;2023-02-28T02:55:40;100916.13;;;2.58;72.61
78855;BME280;68206;59.956;30.234;2023-02-28T02:58:13;100899.56;;;2.59;72.59
78855;BME280;68206;59.956;30.234;2023-02-28T03:00:47;100895.19;;;2.56;72.43
78855;BME280;68206;59.956;30.234;2023-02-28T03:03:18;100884.75;;;2.61;72.37
78855;BME280;68206;59.956;30.234;2023-02-28T03:05:59;100865.53;;;2.59;72.86
78855;BME280;68206;59.956;30.234;2023-02-28T03:08:30;100870.75;;;2.57;72.74
78855;BME280;68206;59.956;30.234;2023-02-28T03:11:03;100855.06;;;2.60;72.30
78855;BME280;68206;59.956;30.234;2023-02-28T03:13:54;100865.53;;;2.56;72.24
78855;BME280;68206;59.956;30.234;2023-02-28T03:16:45;100866.41;;;2.55;72.41
78855;BME280;68206;59.956;30.234;2023-02-28T03:19:30;100862.91;;;2.57;72.25
78855;BME280;68206;59.956;30.234;2023-02-28T03:22:14;100870.72;;;2.51;72.50
78855;BME280;68206;59.956;30.234;2023-02-28T03:24:49;100865.47;;;2.51;72.35
78855;BME280;68206;59.956;30.234;2023-02-28T03:27:23;100868.09;;;2.51;72.72
78855;BME280;68206;59.956;30.234;2023-02-28T03:30:00;100867.25;;;2.49;72.27
78855;BME280;68206;59.956;30.234;2023-02-28T03:32:35;100862.00;;;2.52;72.28
78855;BME280;68206;59.956;30.234;2023-02-28T03:35:09;100872.47;;;2.52;72.58
78855;BME280;68206;59.956;30.234;2023-02-28T03:37:43;100855.00;;;2.48;72.70
78855;BME280;68206;59.956;30.234;2023-02-28T03:40:16;100868.09;;;2.43;72.60
78855;BME280;68206;59.956;30.234;2023-02-28T03:42:48;100859.34;;;2.44;72.93
78855;BME280;68206;59.956;30.234;2023-02-28T03:45:19;100859.34;;;2.46;72.68
78855;BME280;68206;59.956;30.234;2023-02-28T03:47:53;100863.72;;;2.42;72.74
78855;BME280;68206;59.956;30.234;2023-02-28T03:50:25;100861.06;;;2.41;72.65
78855;BME280;68206;59.956;30.234;2023-02-28T03:53:01;100866.31;;;2.41;72.49
78855;BME280;68206;59.956;30.234;2023-02-28T03:55:37;100854.91;;;2.31;72.97
78855;BME280;68206;59.956;30.234;2023-02-28T03:58:12;100863.63;;;2.30;73.15
78855;BME280;68206;59.956;30.234;2023-02-28T04:00:46;100849.69;;;2.30;73.12
78855;BME280;68206;59.956;30.234;2023-02-28T04:03:17;100851.41;;;2.25;73.57
78855;BME280;68206;59.956;30.234;2023-02-28T04:05:50;100843.50;;;2.22;73.42
78855;BME280;68206;59.956;30.234;2023-02-28T04:08:22;100846.16;;;2.25;73.58
78855;BME280;68206;59.956;30.234;2023-02-28T04:10:54;100856.59;;;2.22;73.67
78855;BME280;68206;59.956;30.234;2023-02-28T04:13:25;100860.09;;;2.24;73.27
78855;BME280;68206;59.956;30.234;2023-02-28T04:15:54;100853.06;;;2.17;73.28
78855;BME280;68206;59.956;30.234;2023-02-28T04:18:22;100866.16;;;2.20;73.13
78855;BME280;68206;59.956;30.234;2023-02-28T04:20:51;100852.19;;;2.15;73.73
78855;BME280;68206;59.956;30.234;2023-02-28T04:23:21;100856.56;;;2.17;73.48
78855;BME280;68206;59.956;30.234;2023-02-28T04:25:50;100857.38;;;2.10;73.65
78855;BME280;68206;59.956;30.234;2023-02-28T04:28:19;100865.25;;;2.12;73.71
78855;BME280;68206;59.956;30.234;2023-02-28T04:30:54;100845.16;;;2.06;73.39
78855;BME280;68206;59.956;30.234;2023-02-28T04:33:23;100851.25;;;2.03;73.41
78855;BME280;68206;59.956;30.234;2023-02-28T04:35:58;100864.28;;;1.99;73.39
78855;BME280;68206;59.956;30.234;2023-02-28T04:38:29;100870.41;;;2.02;73.44
78855;BME280;68206;59.956;30.234;2023-02-28T04:40:59;100842.44;;;1.95;73.85
78855;BME280;68206;59.956;30.234;2023-02-28T04:43:28;100832.81;;;1.90;74.42
78855;BME280;68206;59.956;30.234;2023-02-28T04:46:01;100823.19;;;1.83;73.88
78855;BME280;68206;59.956;30.234;2023-02-28T04:48:32;100831.03;;;1.83;74.15
78855;BME280;68206;59.956;30.234;2023-02-28T04:51:02;100848.47;;;1.84;74.25
78855;BME280;68206;59.956;30.234;2023-02-28T04:53:32;100860.66;;;1.83;74.30
78855;BME280;68206;59.956;30.234;2023-02-28T04:56:01;100851.09;;;1.81;74.04
78855;BME280;68206;59.956;30.234;2023-02-28T04:58:30;100835.34;;;1.78;74.50
78855;BME280;68206;59.956;30.234;2023-02-28T05:01:02;100832.72;;;1.76;74.41
78855;BME280;68206;59.956;30.234;2023-02-28T05:03:31;100830.97;;;1.74;74.13
78855;BME280;68206;59.956;30.234;2023-02-28T05:06:00;100840.56;;;1.73;74.42
78855;BME280;68206;59.956;30.234;2023-02-28T05:08:28;100836.16;;;1.71;74.91
78855;BME280;68206;59.956;30.234;2023-02-28T05:10:59;100831.81;;;1.71;74.68
78855;BME280;68206;59.956;30.234;2023-02-28T05:13:29;100840.50;;;1.70;74.66
78855;BME280;68206;59.956;30.234;2023-02-28T05:15:57;100841.38;;;1.71;74.76
78855;BME280;68206;59.956;30.234;2023-02-28T05:18:26;100849.25;;;1.72;74.84
78855;BME280;68206;59.956;30.234;2023-02-28T05:20:55;100853.69;;;1.79;74.23
78855;BME280;68206;59.956;30.234;2023-02-28T05:23:25;100853.66;;;1.78;74.89
78855;BME280;68206;59.956;30.234;2023-02-28T05:25:54;100843.22;;;1.82;74.34
78855;BME280;68206;59.956;30.234;2023-02-28T05:28:25;100850.19;;;1.80;74.51
78855;BME280;68206;59.956;30.234;2023-02-28T05:30:54;100835.47;;;1.93;74.23
78855;BME280;68206;59.956;30.234;2023-02-28T05:33:23;100836.31;;;1.90;74.08
78855;BME280;68206;59.956;30.234;2023-02-28T05:35:51;100847.72;;;1.98;74.23
78855;BME280;68206;59.956;30.234;2023-02-28T05:38:20;100843.34;;;2.00;74.10
78855;BME280;68206;59.956;30.234;2023-02-28T05:40:49;100841.69;;;2.06;73.91
78855;BME280;68206;59.956;30.234;2023-02-28T05:43:19;100853.91;;;2.11;73.60
78855;BME280;68206;59.956;30.234;2023-02-28T05:45:49;100864.41;;;2.19;73.44
78855;BME280;68206;59.956;30.234;2023-02-28T05:48:18;100876.63;;;2.20;73.68
78855;BME280;68206;59.956;30.234;2023-02-28T05:50:47;100857.47;;;2.22;73.92
78855;BME280;68206;59.956;30.234;2023-02-28T05:53:15;100867.97;;;2.27;73.96
78855;BME280;68206;59.956;30.234;2023-02-28T05:55:44;100883.66;;;2.24;73.90
78855;BME280;68206;59.956;30.234;2023-02-28T05:58:13;100896.69;;;2.18;74.19
78855;BME280;68206;59.956;30.234;2023-02-28T06:00:42;100888.00;;;2.22;74.46
78855;BME280;68206;59.956;30.234;2023-02-28T06:03:13;100902.00;;;2.30;74.33
78855;BME280;68206;59.956;30.234;2023-02-28T06:05:41;100901.19;;;2.37;73.97
78855;BME280;68206;59.956;30.234;2023-02-28T06:08:10;100903.78;;;2.34;73.42
78855;BME280;68206;59.956;30.234;2023-02-28T06:10:39;100919.47;;;2.34;73.39
78855;BME280;68206;59.956;30.234;2023-02-28T06:13:08;100920.38;;;2.39;72.99
78855;BME280;68206;59.956;30.234;2023-02-28T06:15:37;100924.75;;;2.40;72.36
78855;BME280;68206;59.956;30.234;2023-02-28T06:18:06;100941.34;;;2.42;72.48
78855;BME280;68206;59.956;30.234;2023-02-28T06:20:36;100935.25;;;2.44;72.14
78855;BME280;68206;59.956;30.234;2023-02-28T06:23:05;100938.78;;;2.48;71.73
78855;BME280;68206;59.956;30.234;2023-02-28T06:25:33;100928.34;;;2.54;70.96
78855;BME280;68206;59.956;30.234;2023-02-28T06:28:02;100929.25;;;2.59;70.65
78855;BME280;68206;59.956;30.234;2023-02-28T06:30:31;100937.13;;;2.65;68.80
78855;BME280;68206;59.956;30.234;2023-02-28T06:33:01;100931.03;;;2.62;68.87
78855;BME280;68206;59.956;30.234;2023-02-28T06:35:29;100940.63;;;2.69;67.50
78855;BME280;68206;59.956;30.234;2023-02-28T06:38:00;100949.38;;;2.69;67.23
78855;BME280;68206;59.956;30.234;2023-02-28T06:40:29;100959.00;;;2.73;65.82
78855;BME280;68206;59.956;30.234;2023-02-28T06:43:01;100969.50;;;2.76;64.97
78855;BME280;68206;59.956;30.234;2023-02-28T06:45:30;100979.94;;;2.75;65.29
78855;BME280;68206;59.956;30.234;2023-02-28T06:47:59;100973.88;;;2.77;64.30
78855;BME280;68206;59.956;30.234;2023-02-28T06:50:28;100986.97;;;2.82;63.04
78855;BME280;68206;59.956;30.234;2023-02-28T06:52:59;100989.63;;;2.83;62.31
78855;BME280;68206;59.956;30.234;2023-02-28T06:55:28;101014.97;;;2.86;62.41
78855;BME280;68206;59.956;30.234;2023-02-28T06:57:57;100996.63;;;2.88;60.67
78855;BME280;68206;59.956;30.234;2023-02-28T07:00:26;101012.38;;;2.94;59.50
78855;BME280;68206;59.956;30.234;2023-02-28T07:02:55;101005.38;;;2.90;59.34
78855;BME280;68206;59.956;30.234;2023-02-28T07:05:24;101018.47;;;2.90;56.95
78855;BME280;68206;59.956;30.234;2023-02-28T07:07:52;101025.47;;;2.91;53.37
78855;BME280;68206;59.956;30.234;2023-02-28T07:10:22;101020.19;;;2.88;53.76
78855;BME280;68206;59.956;30.234;2023-02-28T07:12:51;101029.84;;;2.92;51.81
78855;BME280;68206;59.956;30.234;2023-02-28T07:15:20;101033.34;;;2.92;51.08
78855;BME280;68206;59.956;30.234;2023-02-28T07:17:49;101040.31;;;2.90;50.43
78855;BME280;68206;59.956;30.234;2023-02-28T07:20:18;101023.69;;;2.88;50.29
78855;BME280;68206;59.956;30.234;2023-02-28T07:22:47;101016.72;;;2.87;50.09
78855;BME280;68206;59.956;30.234;2023-02-28T07:25:25;101037.69;;;2.87;49.77
78855;BME280;68206;59.956;30.234;2023-02-28T07:27:56;101035.91;;;2.88;48.20
78855;BME280;68206;59.956;30.234;2023-02-28T07:30:26;101033.31;;;2.89;48.91
78855;BME280;68206;59.956;30.234;2023-02-28T07:32:55;101051.63;;;2.89;46.70
78855;BME280;68206;59.956;30.234;2023-02-28T07:35:24;101048.13;;;2.89;46.60
78855;BME280;68206;59.956;30.234;2023-02-28T07:37:53;101022.00;;;2.93;45.76
78855;BME280;68206;59.956;30.234;2023-02-28T07:40:22;101019.31;;;2.89;46.37
78855;BME280;68206;59.956;30.234;2023-02-28T07:42:52;101024.59;;;2.87;45.36
78855;BME280;68206;59.956;30.234;2023-02-28T07:45:22;101022.81;;;2.88;45.21
78855;BME280;68206;59.956;30.234;2023-02-28T07:47:50;101025.47;;;2.91;44.00
78855;BME280;68206;59.956;30.234;2023-02-28T07:50:20;101012.38;;;2.91;43.04
78855;BME280;68206;59.956;30.234;2023-02-28T07:52:49;101021.94;;;2.89;42.91
78855;BME280;68206;59.956;30.234;2023-02-28T07:55:18;101026.31;;;2.90;43.60
78855;BME280;68206;59.956;30.234;2023-02-28T07:57:46;101016.72;;;2.90;43.34
78855;BME280;68206;59.956;30.234;2023-02-28T08:00:17;101016.72;;;2.90;43.17
78855;BME280;68206;59.956;30.234;2023-02-28T08:02:46;101026.41;;;2.99;42.29
78855;BME280;68206;59.956;30.234;2023-02-28T08:05:15;101015.03;;;2.98;42.37
78855;BME280;68206;59.956;30.234;2023-02-28T08:07:48;101028.16;;;3.00;42.44
78855;BME280;68206;59.956;30.234;2023-02-28T08:10:18;101027.22;;;2.95;42.85
78855;BME280;68206;59.956;30.234;2023-02-28T08:12:46;101018.50;;;2.91;42.86
78855;BME280;68206;59.956;30.234;2023-02-28T08:15:17;101030.72;;;2.95;41.82
78855;BME280;68206;59.956;30.234;2023-02-28T08:17:46;101037.72;;;2.93;42.36
78855;BME280;68206;59.956;30.234;2023-02-28T08:20:14;101036.88;;;2.97;41.93
78855;BME280;68206;59.956;30.234;2023-02-28T08:22:43;101030.72;;;2.95;42.13
78855;BME280;68206;59.956;30.234;2023-02-28T08:25:12;101053.47;;;2.98;42.71
78855;BME280;68206;59.956;30.234;2023-02-28T08:27:41;101054.41;;;3.09;41.86
78855;BME280;68206;59.956;30.234;2023-02-28T08:30:12;101053.63;;;3.23;41.99
78855;BME280;68206;59.956;30.234;2023-02-28T08:32:42;101051.00;;;3.28;41.55
78855;BME280;68206;59.956;30.234;2023-02-28T08:35:11;101050.16;;;3.34;40.53
78855;BME280;68206;59.956;30.234;2023-02-28T08:37:40;101058.06;;;3.41;41.08
78855;BME280;68206;59.956;30.234;2023-02-28T08:40:10;101059.84;;;3.45;40.75
78855;BME280;68206;59.956;30.234;2023-02-28T08:42:41;101073.00;;;3.54;40.71
78855;BME280;68206;59.956;30.234;2023-02-28T08:45:10;101062.53;;;3.65;40.29
78855;BME280;68206;59.956;30.234;2023-02-28T08:47:39;101059.09;;;3.72;40.62
78855;BME280;68206;59.956;30.234;2023-02-28T08:50:10;101070.44;;;3.73;40.21
78855;BME280;68206;59.956;30.234;2023-02-28T08:52:42;101074.84;;;3.74;40.12
78855;BME280;68206;59.956;30.234;2023-02-28T08:55:11;101075.75;;;3.91;39.29
78855;BME280;68206;59.956;30.234;2023-02-28T08:57:40;101073.16;;;4.03;39.85
78855;BME280;68206;59.956;30.234;2023-02-28T09:00:10;101076.69;;;4.13;39.51
78855;BME280;68206;59.956;30.234;2023-02-28T09:02:41;101086.31;;;4.20;40.31
78855;BME280;68206;59.956;30.234;2023-02-28T09:05:12;101092.47;;;4.22;39.13
78855;BME280;68206;59.956;30.234;2023-02-28T09:07:41;101098.63;;;4.30;39.10
78855;BME280;68206;59.956;30.234;2023-02-28T09:10:10;101095.09;;;4.32;38.89
78855;BME280;68206;59.956;30.234;2023-02-28T09:12:40;101095.97;;;4.31;38.71
78855;BME280;68206;59.956;30.234;2023-02-28T09:15:09;101091.59;;;4.33;38.64
78855;BME280;68206;59.956;30.234;2023-02-28T09:17:38;101096.88;;;4.42;38.27
78855;BME280;68206;59.956;30.234;2023-02-28T09:20:08;101084.63;;;4.47;38.66
78855;BME280;68206;59.956;30.234;2023-02-28T09:22:39;101082.91;;;4.56;38.43
78855;BME280;68206;59.956;30.234;2023-02-28T09:25:08;101078.50;;;4.62;38.46
78855;BME280;68206;59.956;30.234;2023-02-28T09:27:37;101074.13;;;4.60;39.27
78855;BME280;68206;59.956;30.234;2023-02-28T09:30:08;101092.50;;;4.63;41.69
78855;BME280;68206;59.956;30.234;2023-02-28T09:32:37;101085.50;;;4.69;43.10
78855;BME280;68206;59.956;30.234;2023-02-28T09:35:07;101084.63;;;4.82;44.25
78855;BME280;68206;59.956;30.234;2023-02-28T09:37:42;101087.25;;;4.90;45.42
78855;BME280;68206;59.956;30.234;2023-02-28T09:40:12;101089.88;;;5.11;44.67
78855;BME280;68206;59.956;30.234;2023-02-28T09:42:42;101078.47;;;5.31;44.30
78855;BME280;68206;59.956;30.234;2023-02-28T09:45:21;101081.91;;;5.45;44.48
78855;BME280;68206;59.956;30.234;2023-02-28T09:47:53;101067.88;;;5.47;41.86
78855;BME280;68206;59.956;30.234;2023-02-28T09:50:30;101074.00;;;5.54;38.00
78855;BME280;68206;59.956;30.234;2023-02-28T09:53:06;101072.19;;;5.65;33.00
78855;BME280;68206;59.956;30.234;2023-02-28T09:55:42;101096.72;;;5.75;31.72
78855;BME280;68206;59.956;30.234;2023-02-28T09:58:19;101097.66;;;5.58;31.28
78855;BME280;68206;59.956;30.234;2023-02-28T10:00:58;101102.06;;;5.46;30.04
78855;BME280;68206;59.956;30.234;2023-02-28T10:03:32;101103.84;;;5.33;30.47
78855;BME280;68206;59.956;30.234;2023-02-28T10:06:09;101096.88;;;5.21;30.51
78855;BME280;68206;59.956;30.234;2023-02-28T10:08:47;101103.00;;;5.08;30.37
78855;BME280;68206;59.956;30.234;2023-02-28T10:11:21;101116.19;;;5.05;30.84
78855;BME280;68206;59.956;30.234;2023-02-28T10:13:54;101096.03;;;4.98;29.40
78855;BME280;68206;59.956;30.234;2023-02-28T10:16:31;101107.41;;;4.91;28.63
78855;BME280;68206;59.956;30.234;2023-02-28T10:19:04;101103.91;;;4.80;28.00
78855;BME280;68206;59.956;30.234;2023-02-28T10:21:38;101118.81;;;4.67;29.00
78855;BME280;68206;59.956;30.234;2023-02-28T10:24:19;101122.28;;;4.57;28.35
78855;BME280;68206;59.956;30.234;2023-02-28T10:26:52;101120.50;;;4.50;28.26
78855;BME280;68206;59.956;30.234;2023-02-28T10:29:24;101110.88;;;4.41;28.63
78855;BME280;68206;59.956;30.234;2023-02-28T10:31:53;101102.09;;;4.38;28.65
78855;BME280;68206;59.956;30.234;2023-02-28T10:34:24;101117.84;;;4.32;27.88
78855;BME280;68206;59.956;30.234;2023-02-28T10:36:53;101122.22;;;4.27;28.52
78855;BME280;68206;59.956;30.234;2023-02-28T10:39:39;101129.19;;;4.20;28.49
78855;BME280;68206;59.956;30.234;2023-02-28T10:42:25;101114.31;;;4.15;29.04
78855;BME280;68206;59.956;30.234;2023-02-28T10:45:10;101123.91;;;4.08;28.57
78855;BME280;68206;59.956;30.234;2023-02-28T10:47:49;101129.19;;;4.05;29.97
78855;BME280;68206;59.956;30.234;2023-02-28T10:50:37;101125.66;;;4.04;29.88
78855;BME280;68206;59.956;30.234;2023-02-28T10:53:16;101112.53;;;4.01;29.04
78855;BME280;68206;59.956;30.234;2023-02-28T10:56:01;101127.41;;;4.04;29.16
78855;BME280;68206;59.956;30.234;2023-02-28T10:58:32;101118.63;;;3.94;29.35
78855;BME280;68206;59.956;30.234;2023-02-28T11:01:14;101143.97;;;3.91;28.93
78855;BME280;68206;59.956;30.234;2023-02-28T11:03:43;101138.72;;;3.86;29.12
78855;BME280;68206;59.956;30.234;2023-02-28T11:06:17;101139.56;;;3.84;29.67
78855;BME280;68206;59.956;30.234;2023-02-28T11:08:50;101131.72;;;3.81;28.45
78855;BME280;68206;59.956;30.234;2023-02-28T11:11:22;101126.47;;;3.81;28.58
78855;BME280;68206;59.956;30.234;2023-02-28T11:13:54;101133.44;;;3.79;27.88
78855;BME280;68206;59.956;30.234;2023-02-28T11:16:32;101141.28;;;3.76;28.05
78855;BME280;68206;59.956;30.234;2023-02-28T11:19:03;101140.41;;;3.74;27.08
78855;BME280;68206;59.956;30.234;2023-02-28T11:21:34;101130.75;;;3.65;27.73
78855;BME280;68206;59.956;30.234;2023-02-28T11:24:18;101128.97;;;3.64;27.11
78855;BME280;68206;59.956;30.234;2023-02-28T11:26:51;101133.31;;;3.54;27.71
78855;BME280;68206;59.956;30.234;2023-02-28T11:29:22;101142.03;;;3.53;27.92
78855;BME280;68206;59.956;30.234;2023-02-28T11:32:12;101117.53;;;3.51;27.03
78855;BME280;68206;59.956;30.234;2023-02-28T11:34:42;101121.00;;;3.43;27.59
78855;BME280;68206;59.956;30.234;2023-02-28T11:37:14;101120.13;;;3.44;27.77
78855;BME280;68206;59.956;30.234;2023-02-28T11:39:44;101117.50;;;3.42;27.20
78855;BME280;68206;59.956;30.234;2023-02-28T11:42:27;101127.09;;;3.39;27.75
78855;BME280;68206;59.956;30.234;2023-02-28T11:45:07;101122.72;;;3.39;27.77
78855;BME280;68206;59.956;30.234;2023-02-28T11:47:47;101119.22;;;3.36;28.15
78855;BME280;68206;59.956;30.234;2023-02-28T11:50:27;101122.69;;;3.30;28.05
78855;BME280;68206;59.956;30.234;2023-02-28T11:53:05;101130.53;;;3.32;28.51
78855;BME280;68206;59.956;30.234;2023-02-28T11:55:42;101120.91;;;3.28;27.99
78855;BME280;68206;59.956;30.234;2023-02-28T11:58:33;101129.63;;;3.25;28.58
78855;BME280;68206;59.956;30.234;2023-02-28T12:01:15;101124.44;;;3.30;27.95
78855;BME280;68206;59.956;30.234;2023-02-28T12:03:58;101118.31;;;3.32;28.64
78855;BME280;68206;59.956;30.234;2023-02-28T12:06:36;101133.22;;;3.36;28.13
78855;BME280;68206;59.956;30.234;2023-02-28T12:09:26;101133.22;;;3.36;27.93
78855;BME280;68206;59.956;30.234;2023-02-28T12:12:03;101134.91;;;3.33;27.01
78855;BME280;68206;59.956;30.234;2023-02-28T12:14:55;101134.88;;;3.27;25.17
78855;BME280;68206;59.956;30.234;2023-02-28T12:17:34;101147.06;;;3.21;26.04
78855;BME280;68206;59.956;30.234;2023-02-28T12:20:15;101145.28;;;3.14;26.07
78855;BME280;68206;59.956;30.234;2023-02-28T12:22:52;101148.75;;;3.10;26.46
78855;BME280;68206;59.956;30.234;2023-02-28T12:25:44;101154.78;;;2.99;26.67
78855;BME280;68206;59.956;30.234;2023-02-28T12:28:19;101155.63;;;2.96;26.90
78855;BME280;68206;59.956;30.234;2023-02-28T12:30:55;101149.50;;;2.97;26.60
78855;BME280;68206;59.956;30.234;2023-02-28T12:33:30;101145.97;;;2.94;26.85
78855;BME280;68206;59.956;30.234;2023-02-28T12:36:07;101156.44;;;2.94;27.11
78855;BME280;68206;59.956;30.234;2023-02-28T12:38:42;101148.59;;;2.92;27.10
78855;BME280;68206;59.956;30.234;2023-02-28T12:41:14;101142.44;;;2.89;27.09
78855;BME280;68206;59.956;30.234;2023-02-28T12:43:46;101148.59;;;2.94;28.65
78855;BME280;68206;59.956;30.234;2023-02-28T12:46:19;101159.94;;;2.91;27.75
78855;BME280;68206;59.956;30.234;2023-02-28T12:48:52;101146.00;;;2.95;29.41
78855;BME280;68206;59.956;30.234;2023-02-28T12:51:24;101144.31;;;3.03;29.81
78855;BME280;68206;59.956;30.234;2023-02-28T12:54:02;101147.88;;;3.10;27.83
78855;BME280;68206;59.956;30.234;2023-02-28T12:56:38;101154.91;;;3.15;28.97
78855;BME280;68206;59.956;30.234;2023-02-28T12:59:15;101148.84;;;3.22;28.77
78855;BME280;68206;59.956;30.234;2023-02-28T13:02:00;101150.63;;;3.28;28.63
78855;BME280;68206;59.956;30.234;2023-02-28T13:10:43;101144.69;;;3.55;27.19
78855;BME280;68206;59.956;30.234;2023-02-28T13:13:18;101135.94;;;3.56;27.56
78855;BME280;68206;59.956;30.234;2023-02-28T13:16:00;101139.41;;;3.56;27.31
78855;BME280;68206;59.956;30.234;2023-02-28T13:18:33;101143.75;;;3.47;27.12
78855;BME280;68206;59.956;30.234;2023-02-28T13:21:06;101141.94;;;3.38;26.51
78855;BME280;68206;59.956;30.234;2023-02-28T13:23:59;101161.97;;;3.29;27.21
78855;BME280;68206;59.956;30.234;2023-02-28T13:29:38;101178.41;;;3.05;26.82
78855;BME280;68206;59.956;30.234;2023-02-28T13:32:40;101180.94;;;2.97;26.80
78855;BME280;68206;59.956;30.234;2023-02-28T13:35:42;101180.03;;;2.91;26.88
78855;BME280;68206;59.956;30.234;2023-02-28T13:44:09;101184.09;;;2.60;26.78